Time;durP1;ratioP1;P1;durP2;ratioP2;P2;SDS_P1;SDS_P2;PMS_P1;PMS_P2;Temp;Humidity;BMP_temperature;BMP_pressure;BME280_temperature;BME280_humidity;BME280_pressure;Samples;Min_cycle;Max_cycle;Signal;HPM_P1;HPM_P2
2021/12/21 00:04:05;;;;;;;;;;;;;;;;;;;;;
2021/12/21 00:30:28;;;;;;;;;;;;;;;-1.93;79.81;99273.20;212157;1325;22597;-70
2021/12/21 00:36:53;;;;;;;;;;;;;;;-1.92;79.93;99278.36;212581;1325;22561;-69
2021/12/21 00:43:20;;;;;;;;;;;;;;;-1.94;79.78;99276.05;212837;1316;22666;-69
2021/12/21 00:49:46;;;;;;;;;;;;;;;-1.95;79.81;99281.38;212564;1325;22577;-69
2021/12/21 01:02:57;;;;;;;;;;;;;;;-1.96;79.96;99292.20;212441;1323;22560;-68
2021/12/21 01:09:00;;;;;;;;;;;;;;;-1.95;79.97;99293.59;212328;1318;22764;-68
2021/12/21 01:33:22;;;;;;;;;;;;;;;;;;;;;
2021/12/21 01:38:46;;;;;;;;;;;;;;;-1.74;80.07;99296.84;212677;1324;23971;-69
2021/12/21 01:50:39;;;;;;;;;;;;;;;;;;;;;
2021/12/21 01:56:16;;;;;;;;;;;;;;;-1.65;80.40;99287.42;212880;1321;25372;-69
2021/12/21 02:02:39;;;;;;;;;;;;;;;;;;;;;
2021/12/21 02:15:04;;;;;;;;;;;;;;;;;;;;;
2021/12/21 02:21:56;;;;;;;;;;;;;;;-1.61;80.75;99273.77;212866;1324;25407;-69
2021/12/21 02:28:45;;;;;;;;;;;;;;;-1.55;80.70;99273.04;212612;1322;22759;-67
2021/12/21 02:34:44;;;;;;;;;;;;;;;;;;;;;
2021/12/21 02:40:30;;;;;;;;;;;;;;;-1.50;81.09;99268.04;212837;1315;23341;-68
2021/12/21 02:52:01;;;;;;;;;;;;;;;-1.46;81.10;99256.98;213367;1315;22570;-69
2021/12/21 02:58:07;;;;;;;;;;;;;;;;;;;;;
2021/12/21 03:16:12;;;;;;;;;;;;;;;-1.45;81.48;99257.79;212956;1319;22681;-69
2021/12/21 03:22:46;;;;;;;;;;;;;;;-1.46;81.48;99266.02;212758;1323;22559;-69
2021/12/21 03:29:18;;;;;;;;;;;;;;;-1.45;81.56;99271.81;212659;1320;22565;-69
2021/12/21 03:35:54;;;;;;;;;;;;;;;-1.46;81.61;99271.65;212900;1320;22564;-68
2021/12/21 03:55:51;;;;;;;;;;;;;;;;;;;;;
2021/12/21 04:02:16;;;;;;;;;;;;;;;-1.53;81.69;99273.48;212724;1322;24232;-69
2021/12/21 04:15:27;;;;;;;;;;;;;;;;;;;;;
2021/12/21 04:21:53;;;;;;;;;;;;;;;-1.42;82.26;99280.27;212882;1323;25571;-68
2021/12/21 04:28:03;;;;;;;;;;;;;;;;;;;;;
2021/12/21 04:46:20;;;;;;;;;;;;;;;-1.54;82.10;99289.84;212579;1318;22645;-69
2021/12/21 05:05:22;;;;;;;;;;;;;;;-1.51;82.17;99297.23;213177;1323;24292;-69
2021/12/21 05:17:58;;;;;;;;;;;;;;;-1.44;82.08;99302.86;212529;1323;22664;-68
2021/12/21 05:23:57;;;;;;;;;;;;;;;;;;;;;
2021/12/21 05:37:10;;;;;;;;;;;;;;;;;;;;;
2021/12/21 05:42:36;;;;;;;;;;;;;;;-1.63;81.97;99314.95;211820;1324;22562;-69
2021/12/21 05:48:29;;;;;;;;;;;;;;;-1.69;81.94;99314.93;212719;1323;22562;-69
2021/12/21 05:55:06;;;;;;;;;;;;;;;-1.76;82.22;99311.02;212704;1324;24253;-69
2021/12/21 06:07:22;;;;;;;;;;;;;;;-1.80;82.39;99310.60;212922;1322;25064;-70
2021/12/21 06:44:40;;;;;;;;;;;;;;;;;;;;;
2021/12/21 07:09:29;;;;;;;;;;;;;;;-1.82;82.81;99368.77;212634;1315;24264;-70
2021/12/21 07:28:52;;;;;;;;;;;;;;;-1.73;83.02;99378.89;214324;1315;24273;-70
2021/12/21 07:40:40;;;;;;;;;;;;;;;-1.66;82.95;99387.49;212669;1315;24910;-69
2021/12/21 07:46:53;;;;;;;;;;;;;;;-1.64;83.01;99381.15;214181;1315;24423;-69
2021/12/21 07:52:38;;;;;;;;;;;;;;;-1.58;82.94;99385.52;214141;1315;24266;-69
2021/12/21 08:05:30;;;;;;;;;;;;;;;;;;;;;
2021/12/21 08:18:28;;;;;;;;;;;;;;;-1.20;82.37;99402.23;213392;1317;22573;-69
2021/12/21 08:24:16;;;;;;;;;;;;;;;;;;;;;
2021/12/21 08:30:05;;;;;;;;;;;;;;;-1.20;82.14;99408.27;214034;1316;24248;-70
2021/12/21 08:35:33;;;;;;;;;;;;;;;-1.17;82.07;99415.55;213460;1318;22548;-70
2021/12/21 08:40:40;;;;;;;;;;;;;;;-1.12;82.28;99417.31;214604;1315;22571;-69
2021/12/21 08:45:56;;;;;;;;;;;;;;;-1.07;82.14;99426.33;212589;1316;22542;-70
2021/12/21 08:51:15;;;;;;;;;;;;;;;-1.06;81.65;99430.58;214171;1316;25391;-71
2021/12/21 08:56:18;;;;;;;;;;;;;;;-1.08;81.67;99439.18;214200;1319;24717;-70
2021/12/21 09:01:46;;;;;;;;;;;;;;;-1.15;81.56;99442.80;212757;1315;23563;-70
2021/12/21 09:07:03;;;;;;;;;;;;;;;-1.25;81.25;99445.58;212318;1316;25307;-69
2021/12/21 09:12:05;;;;;;;;;;;;;;;-1.33;81.46;99447.19;212443;1316;22755;-70
2021/12/21 09:17:49;;;;;;;;;;;;;;;-1.41;81.49;99448.84;212937;1316;22574;-71
2021/12/21 09:29:38;;;;;;;;;;;;;;;-1.48;81.01;99468.73;212480;1316;24254;-69
2021/12/21 09:34:57;;;;;;;;;;;;;;;-1.49;80.69;99469.90;212768;1315;25357;-70
2021/12/21 09:46:09;;;;;;;;;;;;;;;;;;;;;
2021/12/21 09:58:50;;;;;;;;;;;;;;;-0.90;80.29;99445.40;214222;1315;22543;-70
2021/12/21 10:04:05;;;;;;;;;;;;;;;;;;;;;
2021/12/21 10:10:01;;;;;;;;;;;;;;;-0.30;78.89;99435.80;212401;1315;24390;-69
2021/12/21 10:15:17;;;;;;;;;;;;;;;;;;;;;
2021/12/21 10:20:44;;;;;;;;;;;;;;;0.03;78.37;99446.11;212938;1316;22586;-67
2021/12/21 10:25:51;;;;;;;;;;;;;;;0.19;77.88;99452.91;212832;1315;22771;-69
2021/12/21 10:30:54;;;;;;;;;;;;;;;0.25;77.62;99452.27;214090;1316;22684;-68
2021/12/21 10:35:57;;;;;;;;;;;;;;;0.28;77.48;99444.67;213020;1316;22567;-70
2021/12/21 10:41:15;;;;;;;;;;;;;;;0.26;76.81;99444.61;213157;1315;24256;-69
2021/12/21 10:46:41;;;;;;;;;;;;;;;0.20;76.24;99437.70;213149;1320;24368;-69
2021/12/21 10:57:42;;;;;;;;;;;;;;;0.02;75.08;99442.34;212800;1315;22554;-69
2021/12/21 11:03:11;;;;;;;;;;;;;;;-0.11;74.87;99433.66;212639;1316;25265;-68
2021/12/21 11:08:35;;;;;;;;;;;;;;;-0.01;75.07;99435.02;214507;1315;25251;-69
2021/12/21 11:14:12;;;;;;;;;;;;;;;-0.02;74.69;99433.35;213591;1316;24960;-69
2021/12/21 11:19:34;;;;;;;;;;;;;;;-0.15;74.02;99428.40;212570;1315;23023;-70
2021/12/21 11:24:37;;;;;;;;;;;;;;;-0.24;74.22;99428.35;212417;1320;22620;-71
2021/12/21 11:29:57;;;;;;;;;;;;;;;-0.13;74.57;99423.94;214165;1315;25224;-69
2021/12/21 11:40:42;;;;;;;;;;;;;;;0.34;74.32;99422.33;212203;1317;22741;-71
2021/12/21 11:45:48;;;;;;;;;;;;;;;0.50;73.88;99419.95;214156;1316;22705;-71
2021/12/21 11:50:50;;;;;;;;;;;;;;;0.51;73.07;99418.98;214353;1320;25465;-70
2021/12/21 11:55:52;;;;;;;;;;;;;;;0.41;72.10;99417.61;213157;1316;22640;-69
2021/12/21 12:00:56;;;;;;;;;;;;;;;0.37;72.44;99414.17;213348;1316;22542;-69
2021/12/21 12:06:00;;;;;;;;;;;;;;;0.37;72.13;99411.70;213288;1316;22621;-71
2021/12/21 12:11:03;;;;;;;;;;;;;;;0.36;72.04;99414.47;214530;1316;22561;-71
2021/12/21 12:16:11;;;;;;;;;;;;;;;0.29;71.85;99409.11;214478;1316;22667;-71
2021/12/21 12:21:21;;;;;;;;;;;;;;;0.27;71.52;99406.69;214924;1316;22754;-71
2021/12/21 12:27:08;;;;;;;;;;;;;;;0.25;71.72;99403.05;214749;1316;22635;-71
2021/12/21 12:33:44;;;;;;;;;;;;;;;;;;;;;
2021/12/21 12:39:26;;;;;;;;;;;;;;;0.14;71.55;99414.26;214424;1316;23868;-69
2021/12/21 12:45:11;;;;;;;;;;;;;;;;;;;;;
2021/12/21 12:58:10;;;;;;;;;;;;;;;0.00;72.27;99416.98;212809;1322;22532;-70
2021/12/21 13:04:10;;;;;;;;;;;;;;;;;;;;;
2021/12/21 13:17:59;;;;;;;;;;;;;;;0.08;71.99;99429.82;214119;1315;22655;-71
2021/12/21 13:37:10;;;;;;;;;;;;;;;;;;;;;
2021/12/21 13:50:23;;;;;;;;;;;;;;;;;;;;;
2021/12/21 13:56:42;;;;;;;;;;;;;;;-0.51;72.21;99428.31;213968;1317;22600;-71
2021/12/21 14:03:18;;;;;;;;;;;;;;;-0.52;72.65;99424.02;214000;1316;22700;-70
2021/12/21 14:15:25;;;;;;;;;;;;;;;-0.64;72.66;99432.98;212447;1325;24258;-70
2021/12/21 14:21:36;;;;;;;;;;;;;;;-0.81;72.45;99434.98;212660;1321;22587;-70
2021/12/21 14:27:09;;;;;;;;;;;;;;;-0.91;72.38;99428.48;214024;1316;23010;-69
2021/12/21 14:39:40;;;;;;;;;;;;;;;-1.06;72.73;99426.48;211713;1318;26499;-70
2021/12/21 14:52:59;;;;;;;;;;;;;;;-1.43;73.13;99427.60;212900;1316;25566;-68
2021/12/21 14:59:17;;;;;;;;;;;;;;;-1.56;73.56;99430.25;213495;1316;24324;-68
2021/12/21 15:05:56;;;;;;;;;;;;;;;;;;;;;
2021/12/21 15:18:51;;;;;;;;;;;;;;;;;;;;;
2021/12/21 15:24:56;;;;;;;;;;;;;;;-2.02;74.43;99432.83;212446;1316;22574;-69
2021/12/21 15:30:42;;;;;;;;;;;;;;;;;;;;;
2021/12/21 15:36:43;;;;;;;;;;;;;;;-2.19;74.75;99438.81;213090;1316;25541;-70
2021/12/21 15:42:37;;;;;;;;;;;;;;;-2.24;74.82;99437.05;213098;1323;23790;-70
2021/12/21 15:48:20;;;;;;;;;;;;;;;-2.28;75.50;99436.72;212891;1320;24312;-69
2021/12/21 15:54:18;;;;;;;;;;;;;;;;;;;;;
2021/12/21 16:00:22;;;;;;;;;;;;;;;;;;;;;
2021/12/21 16:06:39;;;;;;;;;;;;;;;-2.32;75.95;99448.36;212889;1323;26516;-69
2021/12/21 16:12:27;;;;;;;;;;;;;;;;;;;;;
2021/12/21 16:18:59;;;;;;;;;;;;;;;-2.40;75.80;99453.94;213022;1322;25284;-69
2021/12/21 16:25:33;;;;;;;;;;;;;;;;;;;;;
2021/12/21 16:32:00;;;;;;;;;;;;;;;;;;;;;
2021/12/21 16:38:44;;;;;;;;;;;;;;;-2.48;76.38;99451.31;213059;1325;25217;-70
2021/12/21 16:45:08;;;;;;;;;;;;;;;-2.53;76.20;99451.10;213518;1324;25258;-70
2021/12/21 16:58:16;;;;;;;;;;;;;;;;;;;;;
2021/12/21 17:04:31;;;;;;;;;;;;;;;;;;;;;
2021/12/21 17:11:03;;;;;;;;;;;;;;;;;;;;;
2021/12/21 17:17:06;;;;;;;;;;;;;;;-2.71;76.95;99445.34;212750;1324;22658;-70
2021/12/21 17:29:41;;;;;;;;;;;;;;;-2.90;77.04;99451.27;211951;1324;22700;-71
2021/12/21 17:55:24;;;;;;;;;;;;;;;-3.22;77.98;99460.05;213677;1323;22982;-70
2021/12/21 18:01:14;;;;;;;;;;;;;;;;;;;;;
2021/12/21 18:07:10;;;;;;;;;;;;;;;-3.28;78.32;99458.61;213776;1323;25467;-70
2021/12/21 18:19:22;;;;;;;;;;;;;;;;;;;;;
2021/12/21 18:25:26;;;;;;;;;;;;;;;;;;;;;
2021/12/21 18:30:46;;;;;;;;;;;;;;;-3.42;78.61;99460.11;213733;1318;22577;-71
2021/12/21 18:35:57;;;;;;;;;;;;;;;-3.40;79.00;99457.04;213963;1323;25195;-71
2021/12/21 18:41:17;;;;;;;;;;;;;;;;;;;;;
2021/12/21 18:47:24;;;;;;;;;;;;;;;-3.47;78.72;99457.17;214129;1323;24324;-71
2021/12/21 18:52:55;;;;;;;;;;;;;;;-3.57;78.71;99463.40;213757;1323;25251;-71
2021/12/21 18:58:36;;;;;;;;;;;;;;;-3.64;78.85;99460.88;213644;1325;25522;-70
2021/12/21 19:04:45;;;;;;;;;;;;;;;-3.70;78.98;99466.48;213871;1320;24718;-71
2021/12/21 19:10:32;;;;;;;;;;;;;;;-3.78;79.07;99470.14;213920;1323;25331;-71
2021/12/21 19:16:28;;;;;;;;;;;;;;;-3.82;79.35;99475.55;213672;1323;24293;-72
2021/12/21 19:22:46;;;;;;;;;;;;;;;;;;;;;
2021/12/21 19:28:51;;;;;;;;;;;;;;;;;;;;;
2021/12/21 19:35:02;;;;;;;;;;;;;;;-3.95;79.71;99478.04;213794;1323;22626;-71
2021/12/21 19:53:25;;;;;;;;;;;;;;;-4.06;80.09;99490.46;213858;1324;22605;-71
2021/12/21 20:05:12;;;;;;;;;;;;;;;-4.27;80.16;99492.69;213908;1323;25393;-72
2021/12/21 20:10:53;;;;;;;;;;;;;;;;;;;;;
2021/12/21 20:17:18;;;;;;;;;;;;;;;-4.47;80.68;99502.91;213948;1323;25400;-72
2021/12/21 20:29:23;;;;;;;;;;;;;;;-4.60;81.23;99504.95;213246;1322;24323;-72
2021/12/21 20:42:42;;;;;;;;;;;;;;;-4.74;81.25;99511.65;213903;1322;23336;-72
2021/12/21 20:48:56;;;;;;;;;;;;;;;;;;;;;
2021/12/21 20:55:38;;;;;;;;;;;;;;;;;;;;;
2021/12/21 21:01:33;;;;;;;;;;;;;;;-4.74;82.08;99516.88;213755;1324;22580;-71
2021/12/21 21:12:40;;;;;;;;;;;;;;;-4.62;82.33;99520.69;214060;1323;22572;-72
2021/12/21 21:18:44;;;;;;;;;;;;;;;-4.57;82.42;99514.51;213887;1323;22574;-69
2021/12/21 21:25:15;;;;;;;;;;;;;;;-4.55;82.29;99513.05;213134;1325;25249;-72
2021/12/21 21:31:08;;;;;;;;;;;;;;;;;;;;;
2021/12/21 21:37:15;;;;;;;;;;;;;;;;;;;;;
2021/12/21 21:43:21;;;;;;;;;;;;;;;-4.22;82.97;99519.14;213442;1323;386657;-70
2021/12/21 21:55:52;;;;;;;;;;;;;;;-3.88;82.81;99535.75;213824;1323;22564;-71
2021/12/21 22:08:36;;;;;;;;;;;;;;;;;;;;;
2021/12/21 22:14:42;;;;;;;;;;;;;;;;;;;;;
2021/12/21 22:27:21;;;;;;;;;;;;;;;;;;;;;
2021/12/21 22:33:44;;;;;;;;;;;;;;;;;;;;;
2021/12/21 22:46:49;;;;;;;;;;;;;;;-3.46;82.51;99551.86;213918;1323;22568;-71
2021/12/21 22:53:23;;;;;;;;;;;;;;;;;;;;;
2021/12/21 23:00:11;;;;;;;;;;;;;;;-3.45;82.44;99529.45;213747;1323;22555;-71
2021/12/21 23:06:26;;;;;;;;;;;;;;;-3.66;82.16;99519.95;213942;1323;22533;-71
2021/12/21 23:12:17;;;;;;;;;;;;;;;-3.83;82.15;99524.12;213848;1323;25368;-71
2021/12/21 23:17:58;;;;;;;;;;;;;;;-3.89;82.38;99532.13;213758;1323;23297;-71
2021/12/21 23:37:31;;;;;;;;;;;;;;;-3.96;82.57;99554.72;216471;1323;22582;-70
2021/12/21 23:44:07;;;;;;;;;;;;;;;-3.96;82.39;99549.69;213686;1322;22721;-71
2021/12/21 23:57:47;;;;;;;;;;;;;;;-3.90;82.69;99556.05;213690;1324;22662;-71
